Latest Coastal Weather Observations for Coolangatta (QLD)

IDN60701

Issued at 6:25 pm EDT Saturday 29 November 2014 (issued every 10 minutes, with the page automatically refreshed every 10 minutes)

About coastal observations | Map of coastal stations | Coastal observations for NSW | Marine services | Other Formats
Station Details ID: 040717 Name: COOLANGATTA Lat: -28.17 Lon: 153.51 Height: 4.0 m
Data from the previous 72 hours. | See also: Recent months at Coolangatta (QLD)
Date/Time
EDT
Temp

°C
Wind Pressure Rain
since 9am
mm
Weather Cloud Vis
km
Sea
Height
m
Swell
Dir
 
Speed
knots
Gust
knots
hPa Trend Height
m
Period
s
Dir
29/06:00pm 24.2 E 8 11 1017.1 - 0.0 - - 10 - - - -
29/05:30pm 24.5 E 9 13 1016.9 - 0.0 - - 10 - - - -
29/05:00pm 24.0 E 9 13 1017.1 - 0.0 - - 10 - - - -
29/04:30pm 25.2 ENE 12 16 1017.3 - 0.0 - - 10 - - - -
29/04:00pm 25.1 ENE 13 17 1017.6 - 0.0 - - 10 - - - -
29/03:30pm 25.6 E 12 16 1017.8 - 0.0 - - 10 - - - -
29/03:00pm 25.7 E 13 18 1018.0 - 0.0 - - 10 - - - -
29/02:30pm 25.7 ESE 12 17 1018.3 - 0.0 - Partly cloudy 10 - - - -
29/02:00pm 25.9 E 11 15 1018.5 - 0.0 - - 10 - - - -
29/01:30pm 26.0 E 11 16 1018.7 - 0.0 - - 10 - - - -
29/01:00pm 26.0 E 11 18 1019.2 - 0.0 - Mostly clear 10 - - - -
29/12:30pm 24.9 E 9 13 1019.5 - 0.0 - Partly cloudy 10 - - - -
29/12:00pm 24.4 ENE 9 13 1019.8 - 0.0 - Partly cloudy 10 - - - -
29/11:30am 25.1 ENE 11 15 1020.1 - 0.0 - Partly cloudy 10 - - - -
29/11:00am 25.0 SE 10 13 1020.3 - 0.0 - Partly cloudy 10 - - - -
29/10:30am 24.7 E 10 14 1020.3 - 0.0 - Partly cloudy 10 - - - -
29/10:00am 25.0 E 9 13 1020.2 - 3.8 - Mostly clear 10 - - - -
29/09:30am 24.9 ESE 11 15 1020.3 - 3.8 - Partly cloudy 10 - - - -
29/09:00am 23.9 SE 10 14 1020.1 - 3.8 - - 10 - - - -
29/08:30am 23.3 ESE 9 12 1020.1 - 3.8 - - 10 - - - -
29/08:00am 22.3 ESE 11 13 1020.0 - 3.8 - - 10 - - - -
29/07:30am 20.8 SSE 6 9 1019.8 - 3.8 - - 10 - - - -
29/07:00am 19.4 S 7 8 1019.5 - 3.8 - - 10 - - - -
29/06:30am 18.5 SW 3 4 1019.2 - 3.8 - - 10 - - - -
29/06:00am 17.6 SSW 4 5 1019.0 - 3.8 - Partly cloudy 10 - - - -
29/05:30am 17.4 S 5 5 1018.7 - 3.8 - Partly cloudy 10 - - - -
29/05:00am 17.5 SSE 5 6 1018.3 - 3.8 - - 10 - - - -
29/04:30am 18.0 S 6 8 1018.1 - 3.8 - Partly cloudy 10 - - - -
29/04:00am 17.7 S 3 4 1018.2 - 3.8 - Partly cloudy 10 - - - -
29/03:30am 18.3 S 5 6 1018.3 - 3.8 - Partly cloudy 10 - - - -
29/03:00am 18.4 S 5 6 1018.3 - 3.8 - Partly cloudy 10 - - - -
29/02:30am 18.8 S 5 6 1018.4 - 3.8 - Partly cloudy 10 - - - -
29/02:00am 19.1 S 5 6 1018.7 - 3.8 - Partly cloudy 10 - - - -
29/01:30am 19.0 S 6 7 1019.2 - 3.8 - Partly cloudy 10 - - - -
29/01:00am 19.0 S 5 8 1019.7 - 3.8 - Partly cloudy 10 - - - -
29/12:30am 18.8 S 5 6 1019.9 - 3.8 - Partly cloudy 10 - - - -
29/12:00am 18.8 SSW 5 6 1020.1 - 3.8 - Partly cloudy 10 - - - -
 
Date/Time
EDT
Temp

°C
Wind Pressure Rain
since 9am
mm
Weather Cloud Vis
km
Sea
Height
m
Swell
Dir
 
Speed
knots
Gust
knots
hPa Trend Height
m
Period
s
Dir
28/11:30pm 19.1 S 4 5 1020.2 - 3.8 - Partly cloudy 10 - - - -
28/11:00pm 19.4 SW 4 7 1020.4 - 3.8 - Partly cloudy 10 - - - -
28/10:30pm 19.3 SSW 4 7 1020.4 - 3.8 - Partly cloudy 10 - - - -
28/10:00pm 19.0 SSW 3 4 1020.2 - 3.8 - Cloudy 10 - - - -
28/09:30pm 18.7 SW 5 6 1020.3 - 3.8 - Partly cloudy 10 - - - -
28/09:00pm 18.5 SW 6 8 1020.1 - 3.8 - Partly cloudy 10 - - - -
28/08:30pm 18.6 WSW 7 9 1019.9 - 3.8 - Partly cloudy 10 - - - -
28/08:00pm 18.8 WSW 5 7 1019.8 - 3.8 - Partly cloudy 10 - - - -
28/07:54pm 19.2 W 4 6 1019.7 - 3.8 - Partly cloudy 10 - - - -
28/07:30pm 19.0 SSE 6 7 1020.0 - 1.8 - Partly cloudy 4 - - - -
28/07:22pm 19.2 S 11 14 1019.9 - 0.8 - Partly cloudy 6 - - - -
28/07:00pm 20.9 SSE 12 16 1019.5 - 0.0 - Cloudy 10 - - - -
28/06:30pm 23.7 ESE 11 15 1019.2 - 0.0 - Partly cloudy 10 - - - -
28/06:00pm 24.1 SE 11 15 1018.8 - 0.0 - - 10 - - - -
28/05:30pm 23.9 ESE 12 16 1018.7 - 0.0 - Partly cloudy 10 - - - -
28/05:00pm 24.2 SE 12 16 1018.8 - 0.0 - Partly cloudy 10 - - - -
28/04:30pm 24.7 SE 15 20 1019.1 - 0.0 - Partly cloudy 10 - - - -
28/04:00pm 24.9 ESE 16 21 1019.2 - 0.0 - Cloudy 10 - - - -
28/03:30pm 24.7 SE 15 19 1019.4 - 0.0 - Partly cloudy 10 - - - -
28/03:00pm 26.3 SE 15 20 1019.6 - 0.0 - Partly cloudy 10 - - - -
28/02:30pm 26.0 SE 16 22 1019.6 - 0.0 - Partly cloudy 10 - - - -
28/02:00pm 26.5 SE 17 23 1019.7 - 0.0 - Partly cloudy 10 - - - -
28/01:30pm 25.2 ESE 17 23 1019.9 - 0.0 - Partly cloudy 10 - - - -
28/01:00pm 26.3 ESE 16 21 1020.0 - 0.0 - Cloudy 10 - - - -
28/12:30pm 25.0 ESE 14 20 1020.2 - 0.0 - Partly cloudy 10 - - - -
28/12:00pm 23.8 ESE 13 21 1020.3 - 0.0 - Partly cloudy 10 - - - -
28/11:30am 23.7 SE 15 20 1020.3 - 0.0 - Partly cloudy 10 - - - -
28/11:00am 22.7 ESE 16 21 1020.1 - 0.0 - Partly cloudy 10 - - - -
28/10:30am 24.7 SE 14 20 1020.0 - 0.0 - Partly cloudy 10 - - - -
28/10:00am 24.0 ESE 15 21 1019.8 - 7.4 - Cloudy 10 - - - -
28/09:30am 23.2 ESE 15 24 1019.7 - 7.4 - Partly cloudy 10 - - - -
28/09:00am 23.2 ESE 15 23 1019.6 - 7.4 - Partly cloudy 10 - - - -
28/08:56am 23.2 SE 15 23 1019.6 - 7.4 - Partly cloudy 10 - - - -
28/08:30am 21.4 S 5 8 1019.5 - 7.4 - Cloudy 10 - - - -
28/08:00am 21.1 SSW 5 7 1019.2 - 7.4 - Partly cloudy 10 - - - -
28/07:30am 20.7 S 8 12 1019.0 - 7.4 - Partly cloudy 10 - - - -
28/07:00am 21.0 S 7 9 1018.7 - 7.2 Recent precip. Cloudy 10 - - - -
28/06:30am 21.2 SSW 6 8 1018.4 - 6.8 - Partly cloudy 10 - - - -
28/06:00am 21.0 SSW 5 8 1018.2 - 6.8 - Partly cloudy 10 - - - -
28/05:30am 20.9 SSW 5 8 1017.8 - 6.8 - Partly cloudy 10 - - - -
28/05:00am 20.9 S 7 11 1017.4 - 6.8 - Partly cloudy 10 - - - -
28/04:30am 20.8 S 8 10 1017.2 - 6.8 - Partly cloudy 10 - - - -
28/04:00am 20.7 S 7 9 1017.1 - 6.8 - Cloudy 10 - - - -
28/03:30am 20.6 S 8 14 1017.1 - 6.8 - Partly cloudy 10 - - - -
28/03:00am 20.4 S 6 11 1017.3 - 6.8 - Partly cloudy 10 - - - -
28/02:56am 20.4 S 7 10 1017.3 - 6.8 - Partly cloudy 9 - - - -
28/02:39am 20.5 SSW 7 10 1017.4 - 6.6 - Partly cloudy 6 - - - -
28/02:30am 20.6 SSW 4 9 1017.5 - 6.0 - Partly cloudy 10 - - - -
28/02:02am 20.6 E 5 9 1017.8 - 6.0 - Partly cloudy 10 - - - -
28/02:00am 20.7 E 5 9 1017.8 - 6.0 - Partly cloudy 10 - - - -
28/01:58am 20.7 E 4 8 1017.8 - 6.0 - Partly cloudy 10 - - - -
28/01:40am 20.7 ESE 5 8 1018.0 - 5.2 - Partly cloudy 6 - - - -
28/01:32am 20.7 ESE 8 10 1018.0 - 4.6 - Cloudy 9 - - - -
28/01:30am 20.8 ESE 8 10 1018.0 - 4.6 - Cloudy 9 - - - -
28/01:15am 20.9 ESE 9 14 1017.9 - 4.6 - Partly cloudy 5 - - - -
28/01:11am 20.9 SE 10 14 1018.0 - 4.2 - Partly cloudy 6 - - - -
28/01:00am 21.0 S 10 15 1018.0 - 3.8 Recent precip. Cloudy 10 - - - -
28/12:37am 21.0 S 11 14 1018.0 - 2.8 - Partly cloudy 5 - - - -
28/12:36am 21.0 S 11 14 1018.0 - 2.2 - Partly cloudy 8 - - - -
28/12:30am 21.1 S 9 13 1018.0 - 1.6 - Partly cloudy 10 - - - -
28/12:18am 21.4 S 10 16 1018.2 - 1.2 - Partly cloudy 6 - - - -
28/12:00am 21.6 S 7 10 1018.2 - 0.2 - Partly cloudy 10 - - - -
 
Date/Time
EDT
Temp

°C
Wind Pressure Rain
since 9am
mm
Weather Cloud Vis
km
Sea
Height
m
Swell
Dir
 
Speed
knots
Gust
knots
hPa Trend Height
m
Period
s
Dir
27/11:30pm 21.5 S 9 16 1018.3 - 0.2 - Partly cloudy 10 - - - -
27/11:00pm 21.9 S 10 15 1018.3 - 0.2 - Partly cloudy 10 - - - -
27/10:30pm 22.9 S 8 12 1018.1 - 0.0 - Partly cloudy 10 - - - -
27/10:00pm 23.0 S 8 11 1018.1 - 0.0 - Cloudy 10 - - - -
27/09:30pm 23.0 S 7 12 1017.9 - 0.0 - Partly cloudy 10 - - - -
27/09:00pm 22.9 S 9 14 1017.3 - 0.0 - Partly cloudy 10 - - - -
27/08:30pm 23.2 S 10 14 1016.7 - 0.0 - - 10 - - - -
27/08:00pm 23.4 S 11 17 1016.8 - 0.0 - - 10 - - - -
27/07:30pm 23.6 SSW 10 16 1016.4 - 0.0 - Partly cloudy 10 - - - -
27/07:00pm 24.5 S 11 15 1016.5 - 0.0 - Cloudy 10 - - - -
27/06:30pm 24.2 S 9 12 1016.2 - 0.0 - Partly cloudy 10 - - - -
27/06:00pm 23.9 S 12 16 1016.1 - 0.0 - Partly cloudy 10 - - - -
27/05:30pm 23.9 S 11 18 1015.8 - 0.0 - Partly cloudy 10 - - - -
27/05:00pm 24.4 S 10 15 1015.3 - 0.0 - Cloudy 10 - - - -
27/04:30pm 24.8 SSE 11 15 1014.9 - 0.0 - Partly cloudy 10 - - - -
27/04:00pm 24.7 SSE 15 22 1014.4 - 0.0 - Cloudy 10 - - - -
27/03:30pm 24.4 SSE 14 18 1014.5 - 0.0 - Partly cloudy 10 - - - -
27/03:00pm 26.5 ENE 9 11 1014.7 - 0.0 - Partly cloudy 10 - - - -
27/02:30pm 27.6 NE 10 13 1014.7 - 0.0 - Partly cloudy 10 - - - -
27/02:00pm 27.7 NE 11 15 1014.6 - 0.0 - Partly cloudy 10 - - - -
27/01:30pm 27.5 NNE 13 17 1014.6 - 0.0 - - 10 - - - -
27/01:00pm 28.0 NNE 12 15 1014.8 - 0.0 - - 10 - - - -
27/12:30pm 27.5 NNE 13 16 1014.9 - 0.0 - - 10 - - - -
27/12:00pm 27.8 NNE 12 14 1015.2 - 0.0 - - 10 - - - -
27/11:30am 28.3 NNE 10 13 1015.6 - 0.0 - - 10 - - - -
27/11:00am 27.2 NNE 11 13 1015.9 - 0.0 - - 10 - - - -
27/10:30am 26.9 NNE 11 13 1016.2 - 0.0 - - 10 - - - -
27/10:00am 26.2 NNE 11 13 1016.3 - 0.0 - - 10 - - - -
27/09:30am 26.5 NNE 9 11 1016.4 - 0.0 - - 10 - - - -
27/09:00am 25.7 N 7 10 1016.6 - 0.0 - - 10 - - - -
27/08:30am 25.2 N 7 8 1016.6 - 0.0 - Partly cloudy 10 - - - -
27/08:00am 24.6 N 6 7 1016.5 - 0.0 - - 10 - - - -
27/07:30am 22.4 N 1 4 1016.4 - 0.0 - - 10 - - - -
27/07:00am 21.4 CALM 0 0 1016.1 - 0.0 - - 10 - - - -
27/06:30am 20.6 CALM 0 0 1015.8 - 0.0 - - 10 - - - -
27/06:00am 20.5 CALM 0 0 1015.5 - 0.0 - - 10 - - - -
27/05:30am 20.1 CALM 0 0 1015.6 - 0.0 - - 10 - - - -
27/05:00am 20.6 CALM 0 0 1015.3 - 0.0 - - 10 - - - -
27/04:30am 20.6 CALM 0 0 1015.2 - 0.0 - - 10 - - - -
27/04:00am 21.1 W 3 3 1015.1 - 0.0 - Cloudy 10 - - - -
27/03:30am 21.3 CALM 0 0 1015.3 - 0.0 - - 10 - - - -
27/03:00am 21.5 CALM 0 3 1015.2 - 0.0 - Partly cloudy 10 - - - -
27/02:30am 21.8 SSW 1 3 1015.6 - 0.0 - Partly cloudy 10 - - - -
27/02:00am 21.7 SSW 2 5 1015.9 - 0.0 - - 10 - - - -
27/01:30am 21.8 NW 4 5 1015.9 - 0.0 - Partly cloudy 10 - - - -
27/01:00am 22.2 CALM 0 0 1016.3 - 0.0 - Cloudy 10 - - - -
27/12:30am 22.4 CALM 0 0 1016.9 - 0.0 - Partly cloudy 10 - - - -
27/12:00am 22.4 N 4 5 1016.7 - 0.0 - Partly cloudy 10 - - - -
 
Date/Time
EDT
Temp

°C
Wind Pressure Rain
since 9am
mm
Weather Cloud Vis
km
Sea
Height
m
Swell
Dir
 
Speed
knots
Gust
knots
hPa Trend Height
m
Period
s
Dir
26/11:30pm 22.6 N 5 7 1016.7 - 0.0 - Partly cloudy 10 - - - -
26/11:00pm 22.9 NNE 7 8 1017.0 - 0.0 - - 10 - - - -
26/10:30pm 23.2 N 6 7 1017.3 - 0.0 - - 9 - - - -
26/10:00pm 23.1 N 6 7 1017.5 - 0.0 - Cloudy 10 - - - -
26/09:30pm 22.9 N 5 5 1017.4 - 0.0 - - 10 - - - -
26/09:00pm 23.8 ENE 3 5 1017.1 - 0.0 - - 10 - - - -
26/08:30pm 23.5 CALM 0 0 1017.3 - 0.0 - Partly cloudy 10 - - - -
26/08:00pm 23.6 ESE 3 5 1017.7 - 0.0 - Partly cloudy 10 - - - -
26/07:30pm 23.6 SE 4 5 1017.3 - 0.0 - Partly cloudy 10 - - - -

Other Formats:

Comma delimited format used in spreadsheet applications
http://www.bom.gov.au/fwo/IDN60701/IDN60701.94592.axf

JavaScript Object Notation format (JSON) in row-major order
http://www.bom.gov.au/fwo/IDN60701/IDN60701.94592.json